Time;durP1;ratioP1;P1;durP2;ratioP2;P2;SDS_P1;SDS_P2;PMS_P1;PMS_P2;Temp;Humidity;BMP_temperature;BMP_pressure;BME280_temperature;BME280_humidity;BME280_pressure;Samples;Min_cycle;Max_cycle;Signal;HPM_P1;HPM_P2
2021/01/16 00:02:22;;;;;;;22.43;7.60;;;;;;;-2.97;82.77;101313.92;5069830;58;21150;-86
2021/01/16 00:07:28;;;;;;;15.87;6.10;;;;;;;-3.00;82.86;101297.98;5061317;58;21102;-85
2021/01/16 00:12:33;;;;;;;11.97;4.63;;;;;;;-2.96;82.90;101300.11;5078900;58;21456;-86
2021/01/16 00:17:39;;;;;;;10.73;5.37;;;;;;;-2.95;82.92;101299.24;5071045;58;21083;-86
2021/01/16 00:29:18;;;;;;;16.57;5.00;;;;;;;-2.95;83.06;101297.95;5034317;59;21485;-85
2021/01/16 00:34:24;;;;;;;18.70;8.93;;;;;;;-2.93;83.19;101300.09;5019665;59;21193;-85
2021/01/16 00:39:29;;;;;;;15.93;7.13;;;;;;;-2.92;83.24;101296.19;4876299;61;21234;-86
2021/01/16 00:44:35;;;;;;;17.20;7.27;;;;;;;-2.86;83.33;101303.02;4866500;60;21110;-85
2021/01/16 00:49:40;;;;;;;11.90;5.37;;;;;;;-2.81;83.29;101299.95;4816382;60;1134356;-85
2021/01/16 00:54:46;;;;;;;8.73;4.30;;;;;;;-2.76;83.33;101296.03;4739316;61;1138456;-86
2021/01/16 00:59:53;;;;;;;12.97;4.50;;;;;;;-2.70;83.43;101295.52;4955357;59;1132316;-85
2021/01/16 01:04:59;;;;;;;10.33;4.33;;;;;;;-2.68;83.34;101298.95;4888415;61;21197;-85
2021/01/16 01:10:08;;;;;;;16.13;5.63;;;;;;;-2.67;83.32;101292.03;4853644;60;21166;-85
2021/01/16 01:15:14;;;;;;;13.10;5.87;;;;;;;-2.70;83.45;101296.80;4886636;61;21519;-85
2021/01/16 01:20:20;;;;;;;10.63;3.07;;;;;;;-2.68;83.62;101288.59;4891848;61;21122;-86
2021/01/16 01:25:26;;;;;;;10.97;5.53;;;;;;;-2.67;83.80;101284.27;4877444;59;21154;-86
2021/01/16 01:30:33;;;;;;;13.47;5.27;;;;;;;-2.65;83.77;101289.86;4851108;61;21166;-85
2021/01/16 01:35:39;;;;;;;11.10;5.37;;;;;;;-2.63;83.87;101293.29;4921483;60;21150;-86
2021/01/16 01:40:45;;;;;;;8.67;3.80;;;;;;;-2.61;83.97;101295.87;5063731;58;21166;-85
2021/01/16 01:45:52;;;;;;;4.40;3.27;;;;;;;-2.63;84.27;101295.88;4900401;59;1132296;-85
2021/01/16 01:51:03;;;;;;;9.20;3.97;;;;;;;-2.66;84.82;101296.34;4947274;59;1136333;-85
2021/01/16 01:56:11;;;;;;;9.53;5.17;;;;;;;-2.69;84.37;101295.94;5004310;59;21145;-86
2021/01/16 02:01:20;;;;;;;13.97;4.43;;;;;;;-2.67;84.44;101294.19;5077277;58;21193;-85
2021/01/16 02:06:25;;;;;;;13.20;4.60;;;;;;;-2.65;84.50;101290.30;5053068;58;21162;-85
2021/01/16 02:11:32;;;;;;;9.73;4.97;;;;;;;-2.65;84.70;101291.16;4788964;61;21190;-85
2021/01/16 02:16:50;;;;;;;13.23;5.50;;;;;;;-2.65;84.77;101279.50;5050087;58;21154;-85
2021/01/16 02:21:55;;;;;;;5.40;3.13;;;;;;;-2.65;84.85;101291.16;5052505;58;21476;-85
2021/01/16 02:27:36;;;;;;;9.43;5.63;;;;;;;-2.65;85.10;101287.27;5017341;59;21106;-85
2021/01/16 02:32:44;;;;;;;10.43;5.43;;;;;;;-2.61;84.79;101298.02;5009928;59;21166;-85
2021/01/16 02:38:12;;;;;;;6.13;2.83;;;;;;;-2.56;84.73;101292.33;5017443;59;21466;-86
2021/01/16 02:43:34;;;;;;;12.43;4.10;;;;;;;-2.54;84.83;101291.02;5022815;58;21179;-85
2021/01/16 02:49:05;;;;;;;9.03;2.40;;;;;;;-2.53;84.83;101291.44;5041646;58;21268;-85
2021/01/16 02:54:13;;;;;;;8.40;3.73;;;;;;;-2.52;84.89;101294.45;4945875;60;21191;-85
2021/01/16 02:59:19;;;;;;;8.57;4.43;;;;;;;-2.52;84.74;101291.43;4947656;60;21195;-85
2021/01/16 03:04:24;;;;;;;10.73;5.70;;;;;;;-2.51;84.69;101293.14;4947178;60;21203;-85
2021/01/16 03:09:32;;;;;;;8.10;4.00;;;;;;;-2.50;84.61;101293.56;4934055;60;21233;-86
2021/01/16 03:14:48;;;;;;;7.83;3.50;;;;;;;-2.49;84.54;101291.39;4941019;60;21151;-85
2021/01/16 03:19:54;;;;;;;9.77;4.17;;;;;;;-2.51;84.58;101287.11;4939783;60;21163;-85
2021/01/16 03:25:00;;;;;;;5.30;3.03;;;;;;;-2.59;84.81;101284.59;4948298;59;21453;-85
2021/01/16 03:30:06;;;;;;;12.27;6.07;;;;;;;-2.59;84.77;101282.44;5020313;58;21523;-85
2021/01/16 03:35:16;;;;;;;7.00;3.43;;;;;;;-2.62;84.67;101276.88;5054839;58;21136;-85
2021/01/16 03:40:22;;;;;;;4.70;2.47;;;;;;;-2.67;84.77;101274.77;4943084;59;21208;-85
2021/01/16 03:45:27;;;;;;;6.63;2.93;;;;;;;-2.71;84.78;101284.73;4943414;59;21185;-85
2021/01/16 03:50:33;;;;;;;3.80;2.83;;;;;;;-2.75;84.73;101279.16;4936347;59;21147;-85
2021/01/16 03:55:38;;;;;;;3.07;2.20;;;;;;;-2.76;84.72;101284.39;4932466;60;21126;-85
2021/01/16 04:00:44;;;;;;;4.60;2.77;;;;;;;-2.79;84.71;101289.16;4931576;60;21512;-85
2021/01/16 04:05:51;;;;;;;7.70;2.70;;;;;;;-2.78;84.62;101288.72;4867251;61;21147;-85
2021/01/16 04:10:57;;;;;;;10.20;3.07;;;;;;;-2.80;84.51;101282.70;4909112;60;21173;-85
2021/01/16 04:16:03;;;;;;;3.53;1.40;;;;;;;-2.84;84.49;101281.86;4964172;60;21157;-85
2021/01/16 04:21:08;;;;;;;8.87;3.20;;;;;;;-2.90;84.45;101275.01;4781404;61;21183;-85
2021/01/16 04:26:14;;;;;;;7.43;3.30;;;;;;;-2.95;84.46;101270.34;4929848;60;21477;-85
2021/01/16 04:31:19;;;;;;;3.87;2.30;;;;;;;-2.97;84.52;101267.34;4849611;60;1132254;-85
2021/01/16 04:36:25;;;;;;;10.70;4.27;;;;;;;-2.98;84.48;101261.73;4943503;60;21170;-85
2021/01/16 04:41:33;;;;;;;3.63;2.77;;;;;;;-3.01;84.45;101266.94;4943622;60;21157;-85
2021/01/16 04:46:38;;;;;;;10.83;3.30;;;;;;;-3.02;84.47;101262.64;4961924;59;21198;-85
2021/01/16 04:51:47;;;;;;;5.43;3.17;;;;;;;-3.02;84.38;101264.79;4939844;58;21165;-85
2021/01/16 04:56:53;;;;;;;6.63;3.33;;;;;;;-3.04;84.36;101254.89;4971901;59;21276;-85
2021/01/16 05:02:01;;;;;;;11.03;4.07;;;;;;;-3.07;84.26;101260.13;5043300;58;21265;-85
2021/01/16 05:07:10;;;;;;;10.07;4.23;;;;;;;-3.15;84.19;101253.28;5051814;58;21129;-85
2021/01/16 05:12:35;;;;;;;6.93;3.13;;;;;;;-3.20;84.22;101247.71;5053860;58;21091;-85
2021/01/16 05:17:50;;;;;;;6.70;2.30;;;;;;;-3.25;83.99;101248.65;5044866;58;21110;-85
2021/01/16 05:23:11;;;;;;;10.50;4.53;;;;;;;-3.32;84.08;101255.59;5085037;58;21264;-85
2021/01/16 05:28:06;;;;;;;4.20;2.37;;;;;;;-3.39;83.95;101260.84;4999081;58;21087;-85
2021/01/16 05:33:12;;;;;;;6.73;2.67;;;;;;;-3.42;83.92;101251.39;4961628;60;21162;-86
2021/01/16 05:38:19;;;;;;;4.20;2.37;;;;;;;-3.48;83.80;101242.81;5029103;59;21698;-86
2021/01/16 05:43:25;;;;;;;2.80;1.93;;;;;;;-3.57;83.87;101240.73;4996606;59;21398;-86
2021/01/16 05:48:33;;;;;;;2.73;1.77;;;;;;;-3.61;84.00;101231.72;5041391;59;21269;-86
2021/01/16 05:53:41;;;;;;;8.03;3.10;;;;;;;-3.61;84.13;101235.59;5041200;59;21281;-86
2021/01/16 05:58:47;;;;;;;4.10;2.20;;;;;;;-3.63;83.93;101239.48;5000747;59;21316;-86
2021/01/16 06:03:58;;;;;;;7.17;2.93;;;;;;;-3.65;83.74;101237.78;4949577;59;21689;-86
2021/01/16 06:09:05;;;;;;;6.17;3.30;;;;;;;-3.66;83.70;101240.80;5041293;58;21588;-86
2021/01/16 06:14:13;;;;;;;11.37;3.60;;;;;;;-3.74;83.63;101238.72;5041111;59;21301;-86
2021/01/16 06:19:25;;;;;;;18.93;4.37;;;;;;;-3.77;83.73;101237.88;5029079;58;21308;-86
2021/01/16 06:24:34;;;;;;;11.70;4.57;;;;;;;-3.81;83.52;101232.30;5033811;59;21320;-86
2021/01/16 06:29:39;;;;;;;5.27;3.00;;;;;;;-3.83;83.70;101228.90;4992369;58;21444;-86
2021/01/16 06:34:45;;;;;;;2.83;1.93;;;;;;;-3.88;83.43;101223.75;5052087;58;21277;-86
2021/01/16 06:39:52;;;;;;;10.07;3.40;;;;;;;-3.93;83.07;101222.92;5045931;58;21103;-86
2021/01/16 06:45:08;;;;;;;7.03;3.60;;;;;;;-3.98;83.12;101226.85;4999291;59;21155;-86
2021/01/16 06:50:15;;;;;;;3.97;2.50;;;;;;;-4.03;82.96;101222.57;5045442;59;21543;-86
2021/01/16 06:55:22;;;;;;;6.47;2.63;;;;;;;-4.05;82.70;101220.00;5045595;58;21147;-85
2021/01/16 07:00:28;;;;;;;5.97;2.70;;;;;;;-4.06;82.60;101212.25;5045393;59;21177;-86
2021/01/16 07:05:34;;;;;;;5.27;3.00;;;;;;;-4.11;82.27;101208.83;5045492;59;21476;-86
2021/01/16 07:10:42;;;;;;;10.47;4.07;;;;;;;-4.14;82.20;101210.17;5025397;58;1132861;-86
2021/01/16 07:15:49;;;;;;;18.23;7.83;;;;;;;-4.16;82.12;101218.36;4945884;58;1138763;-86
2021/01/16 07:21:00;;;;;;;12.60;5.27;;;;;;;-4.19;81.91;101219.23;4968412;58;1138652;-86
2021/01/16 07:26:05;;;;;;;7.30;4.27;;;;;;;-4.18;81.88;101217.08;4955157;58;1138804;-87
2021/01/16 07:31:13;;;;;;;13.87;6.63;;;;;;;-4.19;81.59;101210.19;4882407;58;1136261;-86
2021/01/16 07:36:24;;;;;;;32.70;16.82;;;;;;;-4.23;81.66;101205.91;4872212;59;1138761;-86
2021/01/16 07:41:33;;;;;;;14.77;6.67;;;;;;;-4.20;81.69;101198.14;4898129;59;1140363;-86
2021/01/16 07:46:40;;;;;;;7.37;3.50;;;;;;;-4.21;81.60;101195.14;4969511;59;21169;-86
2021/01/16 07:51:49;;;;;;;11.03;4.60;;;;;;;-4.20;80.91;101203.73;4832512;59;1132203;-86
2021/01/16 07:57:03;;;;;;;209.37;118.03;;;;;;;-4.27;80.86;101199.89;4990451;59;1134546;-86
2021/01/16 08:02:27;;;;;;;13.93;6.83;;;;;;;-4.31;81.29;101205.11;4804464;59;1144969;-86
2021/01/16 08:07:55;;;;;;;13.63;5.70;;;;;;;-4.33;81.04;101207.70;4770282;61;1138454;-86
2021/01/16 08:13:05;;;;;;;9.70;2.67;;;;;;;-4.28;81.05;101199.47;4611096;61;1138834;-86
2021/01/16 08:18:24;;;;;;;13.37;3.83;;;;;;;-4.23;81.08;101196.86;4646615;63;1136416;-86
2021/01/16 08:23:30;;;;;;;7.07;3.50;;;;;;;-4.26;80.50;101199.03;4703968;61;1138420;-86
2021/01/16 08:28:37;;;;;;;22.40;11.97;;;;;;;-4.31;80.27;101195.64;4742760;60;1136383;-85
2021/01/16 08:33:43;;;;;;;8.30;3.57;;;;;;;-4.31;80.78;101176.70;4735838;58;1140628;-87
2021/01/16 08:38:51;;;;;;;6.70;4.30;;;;;;;-4.32;80.18;101147.44;4754188;60;1136326;-87
2021/01/16 08:44:00;;;;;;;10.23;4.37;;;;;;;-4.35;80.45;101163.38;4761759;60;1136376;-87
2021/01/16 08:49:17;;;;;;;10.23;3.77;;;;;;;-4.35;80.31;101167.25;4753784;58;1138792;-87
2021/01/16 08:54:25;;;;;;;143.57;63.47;;;;;;;-4.34;79.91;101180.59;5003117;58;1138342;-86
2021/01/16 08:59:33;;;;;;;134.50;61.63;;;;;;;-4.31;79.69;101172.83;4964829;58;1142665;-86
2021/01/16 09:04:43;;;;;;;13.27;7.23;;;;;;;-4.26;79.70;101168.04;5021484;58;1140534;-86
2021/01/16 09:10:06;;;;;;;21.60;7.80;;;;;;;-4.23;79.69;101169.75;5014940;58;1138581;-86
2021/01/16 09:15:24;;;;;;;9.50;4.20;;;;;;;-4.22;79.94;101164.15;4966071;58;1138746;-86
2021/01/16 09:20:52;;;;;;;17.50;7.43;;;;;;;-4.20;79.49;101154.67;5012859;58;1134254;-86
2021/01/16 09:26:09;;;;;;;9.38;4.05;;;;;;;-4.21;79.42;101143.48;4833022;60;1138871;-87
2021/01/16 09:31:33;;;;;;;12.78;6.15;;;;;;;-4.20;78.96;101127.12;4949985;58;1136453;-87
2021/01/16 09:36:41;;;;;;;9.37;5.93;;;;;;;-4.20;79.38;101115.94;4723209;61;1138326;-87
2021/01/16 09:41:51;;;;;;;14.93;5.70;;;;;;;-4.18;78.92;101132.28;4716638;61;1136361;-87
2021/01/16 09:46:56;;;;;;;16.00;6.90;;;;;;;-4.15;79.10;101121.93;4908949;59;1138439;-87
2021/01/16 09:52:04;;;;;;;17.67;4.67;;;;;;;-4.07;79.34;101116.25;4700986;61;1138304;-87
2021/01/16 09:57:11;;;;;;;10.37;3.83;;;;;;;-4.03;77.66;101109.77;4831523;59;1138374;-88
2021/01/16 10:02:17;;;;;;;29.77;7.55;;;;;;;-3.96;78.21;101109.27;4771738;61;1138956;-88
2021/01/16 10:07:23;;;;;;;13.13;4.80;;;;;;;-3.92;78.78;101101.48;4684060;61;1138476;-89
2021/01/16 10:18:21;;;;;;;19.10;7.27;;;;;;;-3.76;78.23;101075.48;4459299;64;1138732;-87
2021/01/16 10:23:33;;;;;;;20.50;5.13;;;;;;;-3.72;77.82;101062.96;4519021;64;1138795;-88
2021/01/16 10:28:43;;;;;;;18.13;7.17;;;;;;;-3.69;77.85;101059.06;4519124;63;1138962;-88
2021/01/16 10:33:49;;;;;;;7.08;3.27;;;;;;;-3.60;78.43;101053.77;4489602;63;1138494;-87
2021/01/16 10:38:57;;;;;;;12.03;5.57;;;;;;;-3.55;78.00;101039.94;4509540;63;1136375;-87
2021/01/16 10:44:09;;;;;;;10.00;5.10;;;;;;;-3.50;78.28;101031.25;4646304;62;1138530;-87
2021/01/16 10:49:25;;;;;;;65.80;20.57;;;;;;;-3.52;77.60;101023.54;4612758;62;1138779;-87
2021/01/16 10:54:33;;;;;;;6.70;3.73;;;;;;;-3.53;77.70;101015.36;4666875;62;1138561;-86
2021/01/16 10:59:44;;;;;;;10.03;4.17;;;;;;;-3.53;78.00;101014.06;4611819;62;1136472;-87
2021/01/16 11:05:09;;;;;;;10.03;4.50;;;;;;;-3.49;78.17;101009.25;4614047;62;1138378;-87
2021/01/16 11:10:13;;;;;;;8.00;3.63;;;;;;;-3.46;78.05;101001.47;4608420;62;1138425;-87
2021/01/16 11:15:31;;;;;;;12.70;4.65;;;;;;;-3.43;78.34;100996.27;4630940;62;1136192;-88
2021/01/16 11:20:36;;;;;;;14.07;3.63;;;;;;;-3.43;78.39;100989.80;4733392;58;1138681;-86
2021/01/16 11:25:50;;;;;;;6.77;3.27;;;;;;;-3.44;77.84;100982.91;4922557;58;1138433;-86
2021/01/16 11:31:08;;;;;;;21.62;7.87;;;;;;;-3.41;78.28;100981.59;4927043;58;1136712;-86
2021/01/16 11:36:15;;;;;;;11.03;4.73;;;;;;;-3.38;78.85;100969.92;4907748;59;1138432;-86
2021/01/16 11:41:54;;;;;;;17.98;6.05;;;;;;;-3.31;78.60;100956.45;4777736;60;1138276;-86
2021/01/16 11:47:03;;;;;;;8.67;4.20;;;;;;;-3.25;78.91;100949.47;4791818;60;1138396;-87
2021/01/16 11:52:09;;;;;;;7.67;3.33;;;;;;;-3.19;78.66;100941.60;4902776;59;1145949;-87
2021/01/16 11:57:24;;;;;;;16.10;6.17;;;;;;;-3.16;79.04;100935.53;4937889;59;1136724;-86
2021/01/16 12:02:32;;;;;;;10.03;4.13;;;;;;;-3.12;78.87;100924.27;4895071;59;1139094;-87
2021/01/16 12:07:38;;;;;;;6.20;4.03;;;;;;;-3.10;78.59;100918.64;4729149;61;1138352;-86
2021/01/16 12:12:45;;;;;;;11.70;4.53;;;;;;;-3.09;78.53;100925.52;4791299;60;1136263;-86
2021/01/16 12:17:53;;;;;;;10.20;4.30;;;;;;;-3.11;78.66;100918.22;4780672;59;1138614;-86
2021/01/16 12:23:01;;;;;;;8.37;4.10;;;;;;;-3.13;79.12;100905.75;4772094;60;1138887;-86
2021/01/16 12:28:13;;;;;;;4.37;3.47;;;;;;;-3.16;79.28;100896.73;4792067;60;1136443;-87
2021/01/16 12:33:25;;;;;;;11.73;3.70;;;;;;;-3.18;79.62;100889.43;4912965;59;1136551;-87
2021/01/16 12:38:31;;;;;;;7.75;3.67;;;;;;;-3.19;80.02;100886.42;4924894;58;1138366;-87
2021/01/16 12:43:37;;;;;;;7.43;3.83;;;;;;;-3.17;80.08;100872.18;4777022;60;1136196;-87
2021/01/16 12:48:44;;;;;;;7.23;4.00;;;;;;;-3.19;80.29;100861.85;4776153;60;1136923;-86
2021/01/16 12:53:51;;;;;;;18.67;5.57;;;;;;;-3.19;80.59;100853.66;4772720;60;1136768;-86
2021/01/16 12:58:56;;;;;;;23.20;7.47;;;;;;;-3.20;80.66;100844.63;4737757;60;1138406;-86
2021/01/16 13:04:03;;;;;;;92.72;26.82;;;;;;;-3.23;80.92;100837.80;4912167;59;1138760;-87
2021/01/16 13:09:10;;;;;;;8.70;4.53;;;;;;;-3.24;80.82;100839.11;4805462;60;1143354;-87
2021/01/16 13:14:15;;;;;;;16.83;6.70;;;;;;;-3.26;80.95;100828.78;4888090;59;1136503;-87
2021/01/16 13:19:21;;;;;;;10.35;4.80;;;;;;;-3.20;80.65;100835.57;4920303;59;1138465;-86
2021/01/16 13:24:27;;;;;;;11.17;4.27;;;;;;;-3.19;80.25;100843.31;4781002;60;1138384;-86
2021/01/16 13:29:36;;;;;;;9.60;4.07;;;;;;;-3.19;80.15;100829.52;4739916;61;1138308;-85
2021/01/16 13:34:42;;;;;;;9.50;4.10;;;;;;;-3.21;80.00;100819.20;4789046;59;1136475;-87
2021/01/16 13:39:51;;;;;;;6.40;3.07;;;;;;;-3.21;80.24;100811.91;4926096;58;1136655;-86
2021/01/16 13:45:03;;;;;;;4.67;3.23;;;;;;;-3.25;80.15;100794.28;4908587;59;1136513;-87
2021/01/16 13:50:16;;;;;;;;;;;;;;;-3.26;80.35;100798.19;4838577;60;1136625;-86
2021/01/16 13:55:23;;;;;;;7.43;4.30;;;;;;;-3.26;80.72;100796.45;5034087;57;973596;-87
2021/01/16 14:00:29;;;;;;;18.93;8.50;;;;;;;-3.24;80.61;100805.05;5003551;57;1135014;-85
2021/01/16 14:05:35;;;;;;;25.23;10.40;;;;;;;-3.21;80.67;100806.73;4977809;58;1138407;-86
2021/01/16 14:10:47;;;;;;;10.43;5.47;;;;;;;-3.21;80.79;100808.85;4978831;57;1140349;-87
2021/01/16 14:16:00;;;;;;;15.13;6.13;;;;;;;-3.17;80.75;100806.22;5002642;58;1138292;-86
2021/01/16 14:21:17;;;;;;;9.20;5.30;;;;;;;-3.19;80.85;100804.51;4977115;58;1138412;-86
2021/01/16 14:26:29;;;;;;;12.17;6.33;;;;;;;-3.22;80.98;100803.30;4995753;58;1136717;-85
2021/01/16 14:31:45;;;;;;;12.40;6.33;;;;;;;-3.20;81.01;100791.60;4974706;57;1138358;-85
2021/01/16 14:36:58;;;;;;;9.50;5.03;;;;;;;-3.17;81.11;100785.52;4975751;58;1138846;-85
2021/01/16 14:42:03;;;;;;;15.90;6.15;;;;;;;-3.19;81.05;100777.35;4981530;58;1136259;-85
2021/01/16 14:47:09;;;;;;;13.43;5.80;;;;;;;-3.20;81.24;100776.94;4941067;58;1139311;-86
2021/01/16 14:52:19;;;;;;;12.55;4.83;;;;;;;-3.22;81.49;100769.67;4978262;57;1138428;-85
2021/01/16 14:57:45;;;;;;;11.90;6.87;;;;;;;-3.21;81.59;100758.88;4998058;58;1138724;-86
2021/01/16 15:03:06;;;;;;;17.20;7.00;;;;;;;-3.23;81.55;100750.30;5040186;58;1138651;-85
2021/01/16 15:08:16;;;;;;;23.50;7.83;;;;;;;-3.24;81.77;100747.30;4975349;58;1138934;-86
2021/01/16 15:13:23;;;;;;;23.13;10.27;;;;;;;-3.22;81.71;100739.08;4978741;58;1145350;-87
2021/01/16 15:18:29;;;;;;;19.50;10.07;;;;;;;-3.24;81.76;100746.86;4998519;58;1143878;-87
2021/01/16 15:23:35;;;;;;;30.73;11.70;;;;;;;-3.21;81.95;100747.25;4905354;58;1140535;-87
2021/01/16 15:28:42;;;;;;;30.00;13.03;;;;;;;-3.19;82.01;100749.34;5090114;58;1138508;-87
2021/01/16 15:33:56;;;;;;;42.93;20.37;;;;;;;-3.15;81.95;100746.27;5105380;58;21307;-86
2021/01/16 15:39:00;;;;;;;24.57;10.07;;;;;;;-3.15;81.96;100748.85;5074425;58;21173;-87
2021/01/16 15:44:07;;;;;;;20.60;9.30;;;;;;;-3.13;82.03;100753.13;5053760;58;21206;-86
2021/01/16 15:49:13;;;;;;;15.47;8.13;;;;;;;-3.12;82.08;100746.22;5052970;58;21198;-86
2021/01/16 15:54:18;;;;;;;23.03;9.47;;;;;;;-3.10;82.10;100740.58;5054142;58;21149;-86
2021/01/16 15:59:26;;;;;;;22.10;7.13;;;;;;;-3.12;82.12;100726.81;5053684;58;21172;-87
2021/01/16 16:04:36;;;;;;;16.00;7.73;;;;;;;-3.10;82.24;100727.20;5054023;58;21484;-85
2021/01/16 16:09:42;;;;;;;18.40;6.90;;;;;;;-3.08;82.21;100720.27;5053157;59;21157;-86
2021/01/16 16:14:47;;;;;;;35.87;13.67;;;;;;;-3.05;82.38;100722.77;5035001;59;21288;-86
2021/01/16 16:19:53;;;;;;;18.47;8.20;;;;;;;-3.00;82.38;100717.08;5034909;59;21301;-87
2021/01/16 16:24:59;;;;;;;14.73;7.83;;;;;;;-2.98;82.45;100712.73;5034666;59;21293;-87
2021/01/16 16:30:07;;;;;;;37.73;13.47;;;;;;;-2.95;82.61;100709.24;5034680;59;21273;-87
2021/01/16 16:35:14;;;;;;;23.77;8.97;;;;;;;-2.94;82.66;100700.16;5034109;59;21304;-88
2021/01/16 16:40:24;;;;;;;21.67;9.53;;;;;;;-2.92;82.79;100694.52;5022138;59;21591;-87
2021/01/16 16:45:32;;;;;;;47.53;15.93;;;;;;;-2.90;82.92;100689.28;5011483;59;21104;-87
2021/01/16 16:50:41;;;;;;;17.47;6.47;;;;;;;-2.86;83.06;100685.76;5010959;59;21163;-87
2021/01/16 16:55:46;;;;;;;29.43;12.83;;;;;;;-2.83;83.29;100690.87;5011462;59;21123;-87
2021/01/16 17:00:52;;;;;;;19.10;8.33;;;;;;;-2.81;83.49;100692.14;5011823;59;21158;-88
2021/01/16 17:05:59;;;;;;;26.33;12.23;;;;;;;-2.79;83.68;100689.09;5011830;59;21088;-88
2021/01/16 17:11:04;;;;;;;17.53;6.83;;;;;;;-2.75;83.92;100680.39;5011488;59;21154;-87
2021/01/16 17:16:10;;;;;;;25.23;8.70;;;;;;;-2.74;84.29;100680.33;5009971;59;21158;-87
2021/01/16 17:21:16;;;;;;;21.83;8.67;;;;;;;-2.69;84.25;100676.36;5009996;59;21174;-88
2021/01/16 17:26:21;;;;;;;26.80;10.50;;;;;;;-2.66;84.39;100669.38;5013590;59;21145;-87
2021/01/16 17:31:27;;;;;;;15.57;7.83;;;;;;;-2.63;84.22;100665.45;5051117;58;21205;-87
2021/01/16 17:36:34;;;;;;;19.90;7.93;;;;;;;-2.60;84.18;100676.18;5050940;58;21194;-88
2021/01/16 17:41:41;;;;;;;14.13;5.77;;;;;;;-2.58;84.25;100675.67;5035623;57;21120;-87
2021/01/16 17:47:04;;;;;;;23.30;8.20;;;;;;;-2.55;84.29;100671.73;5004455;59;21162;-87
2021/01/16 17:51:56;;;;;;;221.83;67.77;;;;;;;-2.54;84.36;100674.30;4997793;59;21154;-85
2021/01/16 17:57:02;;;;;;;111.13;66.67;;;;;;;-2.51;84.15;100678.13;5004053;59;21193;-86
2021/01/16 18:02:18;;;;;;;18.83;9.10;;;;;;;-2.44;84.33;100690.95;5010506;59;21330;-86
2021/01/16 18:07:20;;;;;;;15.23;9.43;;;;;;;-2.41;84.42;100691.70;5008612;59;21138;-85
2021/01/16 18:12:26;;;;;;;37.10;15.40;;;;;;;-2.40;84.36;100684.34;4940755;58;1134298;-85
2021/01/16 18:17:33;;;;;;;50.93;34.80;;;;;;;-2.36;84.21;100683.84;4967827;58;1140339;-85
2021/01/16 18:22:39;;;;;;;19.30;10.93;;;;;;;-2.34;84.23;100691.14;4900844;58;1140716;-86
2021/01/16 18:27:48;;;;;;;12.97;7.67;;;;;;;-2.26;84.21;100690.52;4928174;59;1140344;-85
2021/01/16 18:32:54;;;;;;;25.90;9.30;;;;;;;-2.27;84.24;100692.25;4902613;58;1138409;-86
2021/01/16 18:38:04;;;;;;;20.73;12.53;;;;;;;-2.30;84.38;100687.17;4911626;58;1138364;-85
2021/01/16 18:43:09;;;;;;;35.78;10.40;;;;;;;-2.28;84.25;100702.20;4928934;58;1140910;-85
2021/01/16 18:48:15;;;;;;;20.03;7.97;;;;;;;-2.25;84.78;100702.58;4855323;59;1140453;-85
2021/01/16 18:53:22;;;;;;;142.07;82.27;;;;;;;-2.25;84.55;100696.96;4795120;60;1138432;-86
2021/01/16 18:58:28;;;;;;;70.62;28.45;;;;;;;-2.19;84.52;100706.34;4760653;60;1142561;-86
2021/01/16 19:03:35;;;;;;;41.77;28.83;;;;;;;-2.16;84.51;100708.43;4764279;61;1140694;-86
2021/01/16 19:08:41;;;;;;;229.23;163.37;;;;;;;-2.15;84.50;100687.27;4773698;60;1140630;-86
2021/01/16 19:13:47;;;;;;;175.87;73.63;;;;;;;-2.15;84.43;100685.52;4916875;58;1144574;-86
2021/01/16 19:18:54;;;;;;;109.93;42.87;;;;;;;-2.08;84.51;100689.25;4810008;58;1142564;-86
2021/01/16 19:24:01;;;;;;;245.00;103.27;;;;;;;-2.09;84.59;100684.95;4869612;58;1142546;-86
2021/01/16 19:29:08;;;;;;;572.13;316.77;;;;;;;-2.09;84.53;100700.50;4943244;58;1142614;-86
2021/01/16 19:34:14;;;;;;;63.63;34.13;;;;;;;-2.08;84.51;100696.58;4967745;59;21257;-87
2021/01/16 19:39:21;;;;;;;46.67;24.13;;;;;;;-2.02;84.63;100689.97;5030110;58;21103;-86
2021/01/16 19:44:27;;;;;;;70.60;34.83;;;;;;;-1.95;84.42;100699.73;5030631;58;21147;-86
2021/01/16 19:49:34;;;;;;;35.60;18.50;;;;;;;-1.95;84.74;100699.73;5031350;58;21262;-87
2021/01/16 19:54:40;;;;;;;19.33;10.13;;;;;;;-1.99;84.75;100691.64;5031495;58;21324;-86
2021/01/16 19:59:46;;;;;;;39.83;19.50;;;;;;;-2.03;84.78;100700.38;5031380;58;21639;-86
2021/01/16 20:04:51;;;;;;;36.20;20.43;;;;;;;-2.02;84.94;100706.81;5025697;58;21289;-85
2021/01/16 20:09:57;;;;;;;41.83;15.77;;;;;;;-2.00;84.95;100697.72;4919991;59;21088;-86
2021/01/16 20:15:05;;;;;;;9.60;5.07;;;;;;;-2.00;84.90;100699.86;5030367;58;21297;-86
2021/01/16 20:20:13;;;;;;;24.93;11.57;;;;;;;-2.01;85.51;100699.89;5098324;58;21300;-85
2021/01/16 20:25:19;;;;;;;16.63;8.53;;;;;;;-1.98;85.08;100713.61;5106812;57;21579;-86
2021/01/16 20:30:27;;;;;;;40.40;14.80;;;;;;;-1.90;85.23;100717.34;5011418;59;21101;-86
2021/01/16 20:35:33;;;;;;;51.57;18.90;;;;;;;-1.85;85.12;100718.95;5073356;58;21177;-86
2021/01/16 20:40:38;;;;;;;46.43;14.13;;;;;;;-1.76;84.99;100725.64;5107108;58;21293;-85
2021/01/16 20:45:44;;;;;;;64.37;13.73;;;;;;;-1.72;84.87;100723.39;5106655;57;21268;-86
2021/01/16 20:50:51;;;;;;;102.50;25.80;;;;;;;-1.66;84.74;100731.00;5028961;57;1136348;-86
2021/01/16 20:55:56;;;;;;;49.90;9.87;;;;;;;-1.67;84.51;100737.07;5021120;56;1142520;-86
2021/01/16 21:01:03;;;;;;;33.75;10.18;;;;;;;-1.69;83.90;100746.66;5146685;57;1136359;-86
2021/01/16 21:06:09;;;;;;;27.63;8.37;;;;;;;-1.79;83.30;100752.92;5208913;57;21295;-86
2021/01/16 21:11:16;;;;;;;10.90;4.57;;;;;;;-1.81;83.02;100765.06;5111212;58;21141;-86
2021/01/16 21:16:22;;;;;;;39.43;12.53;;;;;;;-1.94;81.00;100770.13;5109439;57;21155;-85
2021/01/16 21:21:28;;;;;;;33.10;8.43;;;;;;;-2.10;81.44;100772.20;5055662;57;21257;-85
2021/01/16 21:26:33;;;;;;;36.00;10.43;;;;;;;-2.21;80.84;100772.44;5097561;58;21407;-86
2021/01/16 21:31:39;;;;;;;34.07;11.43;;;;;;;-2.29;81.28;100764.44;5097176;58;21176;-86
2021/01/16 21:36:47;;;;;;;36.43;12.50;;;;;;;-2.40;79.30;100767.66;5097009;58;21174;-86
2021/01/16 21:41:53;;;;;;;24.23;5.83;;;;;;;-2.56;79.83;100783.52;5110815;58;21458;-86
2021/01/16 21:46:58;;;;;;;32.03;8.60;;;;;;;-2.64;79.79;100781.53;5129934;58;21079;-86
2021/01/16 21:52:04;;;;;;;23.87;9.07;;;;;;;-2.80;79.29;100789.17;5119533;58;21127;-86
2021/01/16 21:57:10;;;;;;;9.53;4.27;;;;;;;-2.85;79.39;100797.45;5055639;58;21473;-86
2021/01/16 22:02:15;;;;;;;22.90;7.83;;;;;;;-2.90;79.33;100801.84;5096763;58;21441;-86
2021/01/16 22:07:21;;;;;;;23.73;7.67;;;;;;;-2.95;79.25;100807.13;5088233;58;21147;-85
2021/01/16 22:12:26;;;;;;;22.93;8.53;;;;;;;-3.02;79.19;100818.45;5077550;57;21453;-86
2021/01/16 22:17:32;;;;;;;41.60;14.80;;;;;;;-3.08;79.15;100819.02;5141210;56;21117;-86
2021/01/16 22:22:37;;;;;;;37.93;13.47;;;;;;;-3.18;78.93;100822.18;5240335;56;21075;-86
2021/01/16 22:27:45;;;;;;;49.00;15.93;;;;;;;-3.20;79.13;100827.81;5107178;56;1136416;-86
2021/01/16 22:32:51;;;;;;;33.00;9.47;;;;;;;-3.13;79.52;100828.58;5108737;56;1140534;-86
2021/01/16 22:37:57;;;;;;;30.47;7.33;;;;;;;-3.14;79.04;100831.60;5157270;57;21175;-86
2021/01/16 22:43:02;;;;;;;74.17;17.60;;;;;;;-3.21;78.76;100834.72;5142916;58;21132;-86
2021/01/16 22:48:08;;;;;;;28.23;8.57;;;;;;;-3.20;79.49;100836.86;5142542;58;21179;-86
2021/01/16 22:53:14;;;;;;;19.00;6.53;;;;;;;-3.14;79.33;100841.09;5119137;58;21114;-86
2021/01/16 22:58:19;;;;;;;15.60;6.00;;;;;;;-3.12;79.46;100839.34;5119486;58;21213;-85
2021/01/16 23:03:25;;;;;;;16.73;6.17;;;;;;;-3.12;79.08;100849.69;5118893;57;21205;-85
2021/01/16 23:08:32;;;;;;;27.23;8.33;;;;;;;-3.30;77.32;100856.86;5119664;58;21114;-86
2021/01/16 23:13:38;;;;;;;11.53;5.33;;;;;;;-3.46;76.60;100862.28;5119044;58;21166;-86
2021/01/16 23:18:44;;;;;;;16.23;5.87;;;;;;;-3.56;77.33;100865.45;5117865;57;21168;-86
2021/01/16 23:23:50;;;;;;;17.37;7.40;;;;;;;-3.69;76.70;100872.53;5120541;57;21210;-86
2021/01/16 23:28:56;;;;;;;19.00;7.80;;;;;;;-3.78;77.23;100880.83;5139540;57;21161;-87
2021/01/16 23:34:01;;;;;;;23.47;8.17;;;;;;;-3.85;77.53;100880.07;5139448;57;21174;-86